createdAt,value
2023-04-26T00:01:31.087Z,4.06
2023-04-26T00:03:58.079Z,3.98
2023-04-26T00:06:27.419Z,3.85
2023-04-26T00:08:54.802Z,3.73
2023-04-26T00:11:22.080Z,3.57
2023-04-26T00:13:48.897Z,3.45
2023-04-26T00:16:16.628Z,3.45
2023-04-26T00:18:43.458Z,3.35
2023-04-26T00:21:10.712Z,3.31
2023-04-26T00:23:37.952Z,3.19
2023-04-26T00:26:04.895Z,3.01
2023-04-26T00:28:31.692Z,3.20
2023-04-26T00:30:58.514Z,3.13
2023-04-26T00:33:26.052Z,3.06
2023-04-26T00:35:52.921Z,3.06
2023-04-26T00:38:19.720Z,3.07
2023-04-26T00:40:46.569Z,3.08
2023-04-26T00:43:13.356Z,3.12
2023-04-26T00:45:40.380Z,3.09
2023-04-26T00:48:07.302Z,3.21
2023-04-26T00:50:34.178Z,3.24
2023-04-26T00:53:01.094Z,3.34
2023-04-26T00:55:27.955Z,3.37
2023-04-26T00:57:55.479Z,3.52
2023-04-26T01:00:22.845Z,3.43
2023-04-26T01:02:49.861Z,3.55
2023-04-26T01:05:16.835Z,3.65
2023-04-26T01:07:43.737Z,3.77
2023-04-26T01:10:10.991Z,3.83
2023-04-26T01:12:39.078Z,4.02
2023-04-26T01:15:06.375Z,4.11
2023-04-26T01:17:33.953Z,4.31
2023-04-26T01:20:00.910Z,4.42
2023-04-26T01:22:28.754Z,4.39
2023-04-26T01:24:55.632Z,4.64
2023-04-26T01:27:22.738Z,4.74
2023-04-26T01:29:49.612Z,4.82
2023-04-26T01:32:16.472Z,4.73
2023-04-26T01:34:43.277Z,4.74
2023-04-26T01:37:10.149Z,4.95
2023-04-26T01:39:36.957Z,4.90
2023-04-26T01:42:04.929Z,4.99
2023-04-26T01:44:31.948Z,5.13
2023-04-26T01:46:58.769Z,5.08
2023-04-26T01:49:25.533Z,5.11
2023-04-26T01:51:52.370Z,5.21
2023-04-26T01:54:19.167Z,5.24
2023-04-26T01:56:45.993Z,5.16
2023-04-26T01:59:12.851Z,5.30
2023-04-26T02:01:41.898Z,5.34
2023-04-26T02:04:08.830Z,5.23
2023-04-26T02:06:35.824Z,5.34
2023-04-26T02:09:02.606Z,5.35
2023-04-26T02:11:29.410Z,5.38
2023-04-26T02:13:56.462Z,5.29
2023-04-26T02:16:23.212Z,5.41
2023-04-26T02:18:50.358Z,5.41
2023-04-26T02:21:20.642Z,5.50
2023-04-26T02:23:47.522Z,5.43
2023-04-26T02:26:14.594Z,5.54
2023-04-26T02:28:42.084Z,5.43
2023-04-26T02:31:09.109Z,5.56
2023-04-26T02:33:36.136Z,5.49
2023-04-26T02:36:06.489Z,5.49
2023-04-26T02:38:35.133Z,5.55
2023-04-26T02:41:02.479Z,5.53
2023-04-26T02:43:29.534Z,5.54
2023-04-26T02:45:58.756Z,5.61
2023-04-26T02:48:25.775Z,5.55
2023-04-26T02:50:52.680Z,5.60
2023-04-26T02:53:19.472Z,5.55
2023-04-26T02:55:46.262Z,5.51
2023-04-26T02:58:13.294Z,5.59
2023-04-26T03:00:45.601Z,5.50
2023-04-26T03:03:12.570Z,5.45
2023-04-26T03:05:39.503Z,5.56
2023-04-26T03:08:06.269Z,5.56
2023-04-26T03:10:33.055Z,5.59
2023-04-26T03:12:59.836Z,5.57
2023-04-26T03:15:26.772Z,5.63
2023-04-26T03:17:53.666Z,5.64
2023-04-26T03:20:21.013Z,5.64
2023-04-26T03:22:47.740Z,5.45
2023-04-26T03:25:15.816Z,5.58
2023-04-26T03:27:42.618Z,5.54
2023-04-26T03:30:09.801Z,5.56
2023-04-26T03:32:36.585Z,5.50
2023-04-26T03:35:03.422Z,5.55
2023-04-26T03:37:30.138Z,5.56
2023-04-26T03:39:56.980Z,5.67
2023-04-26T03:42:23.943Z,5.62
2023-04-26T03:44:50.715Z,5.67
2023-04-26T03:47:17.581Z,5.61
2023-04-26T03:49:44.334Z,5.64
2023-04-26T03:52:11.197Z,5.73
2023-04-26T03:54:37.980Z,5.72
2023-04-26T03:57:04.767Z,5.78
2023-04-26T03:59:31.757Z,5.65
2023-04-26T04:01:58.588Z,5.82
2023-04-26T04:04:25.685Z,5.92
2023-04-26T04:06:52.637Z,5.87
2023-04-26T04:09:19.417Z,6.00
2023-04-26T04:11:47.554Z,6.00
2023-04-26T04:14:14.518Z,5.96
2023-04-26T04:16:41.247Z,6.03
2023-04-26T04:19:08.812Z,6.10
2023-04-26T04:21:35.574Z,6.05
2023-04-26T04:24:02.334Z,6.13
2023-04-26T04:26:29.174Z,6.07
2023-04-26T04:28:57.580Z,6.18
2023-04-26T04:31:25.014Z,6.19
2023-04-26T04:33:51.760Z,6.21
2023-04-26T04:36:18.580Z,6.30
2023-04-26T04:38:45.398Z,6.39
2023-04-26T04:41:12.355Z,6.52
2023-04-26T04:43:39.160Z,6.48
2023-04-26T04:46:06.014Z,6.63
2023-04-26T04:48:33.698Z,6.74
2023-04-26T04:51:00.692Z,6.84
2023-04-26T04:53:27.539Z,6.83
2023-04-26T04:55:54.356Z,6.89
2023-04-26T04:58:22.584Z,7.03
2023-04-26T05:00:50.410Z,7.26
2023-04-26T05:03:17.330Z,7.53
2023-04-26T05:05:44.252Z,7.67
2023-04-26T05:08:11.104Z,7.86
2023-04-26T05:10:37.973Z,7.96
2023-04-26T05:13:06.116Z,8.10
2023-04-26T05:15:33.153Z,8.19
2023-04-26T05:18:00.074Z,8.11
2023-04-26T05:20:27.115Z,8.12
2023-04-26T05:22:53.855Z,8.24
2023-04-26T05:25:22.420Z,8.32
2023-04-26T05:27:49.562Z,8.39
2023-04-26T05:30:16.749Z,8.51
2023-04-26T05:32:43.535Z,8.61
2023-04-26T05:35:10.270Z,8.72
2023-04-26T05:37:37.046Z,8.88
2023-04-26T05:40:04.791Z,9.01
2023-04-26T05:42:31.594Z,9.17
2023-04-26T05:44:59.165Z,9.25
2023-04-26T05:47:26.521Z,9.50
2023-04-26T05:49:53.345Z,9.59
2023-04-26T05:52:20.141Z,9.67
2023-04-26T05:54:46.970Z,9.97
2023-04-26T05:57:13.893Z,10.51
2023-04-26T05:59:41.340Z,11.11
2023-04-26T06:02:08.239Z,11.61
2023-04-26T06:04:35.631Z,11.92
2023-04-26T06:07:02.464Z,12.09
2023-04-26T06:09:31.687Z,12.40
2023-04-26T06:11:58.583Z,12.33
2023-04-26T06:14:30.533Z,12.49
2023-04-26T06:16:58.131Z,12.50
2023-04-26T06:19:25.044Z,12.47
2023-04-26T06:21:54.996Z,12.35
2023-04-26T06:24:21.849Z,12.39
2023-04-26T06:26:48.610Z,12.43
2023-04-26T06:29:15.522Z,12.44
2023-04-26T06:31:42.415Z,12.68
2023-04-26T06:34:09.384Z,12.82
2023-04-26T06:36:36.110Z,13.07
2023-04-26T06:39:03.274Z,13.30
2023-04-26T06:41:30.031Z,13.66
2023-04-26T06:43:56.913Z,14.08
2023-04-26T06:48:52.865Z,14.65
2023-04-26T06:51:19.583Z,14.81
2023-04-26T06:53:46.445Z,14.75
2023-04-26T06:56:13.194Z,14.96
2023-04-26T06:58:39.971Z,15.78
2023-04-26T07:01:08.667Z,16.07
2023-04-26T07:03:35.553Z,16.51
2023-04-26T07:06:02.488Z,16.53
2023-04-26T07:08:29.251Z,16.69
2023-04-26T07:10:56.005Z,16.90
2023-04-26T07:13:22.739Z,17.08
2023-04-26T07:15:49.559Z,17.48
2023-04-26T07:18:16.397Z,17.81
2023-04-26T07:20:43.176Z,17.82
2023-04-26T07:23:09.981Z,17.74
2023-04-26T07:25:36.724Z,17.58
2023-04-26T07:28:03.493Z,17.25
2023-04-26T07:30:32.565Z,17.14
2023-04-26T07:32:59.444Z,16.96
2023-04-26T07:35:26.344Z,16.85
2023-04-26T07:37:53.184Z,17.01
2023-04-26T07:40:22.732Z,16.90
2023-04-26T07:42:49.507Z,16.90
2023-04-26T07:45:16.365Z,16.80
2023-04-26T07:47:43.158Z,16.68
2023-04-26T07:50:10.780Z,16.72
2023-04-26T07:52:37.636Z,17.10
2023-04-26T07:55:04.697Z,17.26
2023-04-26T07:57:31.460Z,17.22
2023-04-26T07:59:58.337Z,17.10
2023-04-26T08:02:33.234Z,16.85
2023-04-26T08:05:04.235Z,16.64
2023-04-26T08:07:31.216Z,16.90
2023-04-26T08:09:58.144Z,17.04
2023-04-26T08:12:24.908Z,17.28
2023-04-26T08:14:51.738Z,17.06
2023-04-26T08:17:18.497Z,16.67
2023-04-26T08:19:45.221Z,16.29
2023-04-26T08:22:12.054Z,15.81
2023-04-26T08:24:38.820Z,15.82
2023-04-26T08:27:06.382Z,15.37
2023-04-26T08:29:33.098Z,15.01
2023-04-26T08:32:00.165Z,14.65
2023-04-26T08:34:28.395Z,14.21
2023-04-26T08:36:55.259Z,13.94
2023-04-26T08:39:22.051Z,13.73
2023-04-26T08:41:55.053Z,13.65
2023-04-26T08:44:26.760Z,13.60
2023-04-26T08:47:08.438Z,13.92
2023-04-26T08:49:41.821Z,14.36
2023-04-26T08:52:12.440Z,14.59
2023-04-26T08:54:39.873Z,14.96
2023-04-26T08:57:10.394Z,15.09
2023-04-26T08:59:37.640Z,15.09
2023-04-26T09:02:07.504Z,15.12
2023-04-26T09:04:34.643Z,15.05
2023-04-26T09:07:03.243Z,15.03
2023-04-26T09:09:41.564Z,14.92
2023-04-26T09:12:08.482Z,15.01
2023-04-26T09:14:35.237Z,15.15
2023-04-26T09:17:02.004Z,15.10
2023-04-26T09:19:44.217Z,15.08
2023-04-26T09:22:11.300Z,14.96
2023-04-26T09:24:50.760Z,15.02
2023-04-26T09:27:17.735Z,15.02
2023-04-26T09:30:17.482Z,15.42
2023-04-26T09:32:58.296Z,15.30
2023-04-26T09:35:26.962Z,15.56
2023-04-26T09:38:02.983Z,15.39
2023-04-26T09:40:34.473Z,15.26
2023-04-26T09:43:03.419Z,15.15
2023-04-26T09:45:31.254Z,15.25
2023-04-26T09:48:22.738Z,15.46
2023-04-26T09:50:52.579Z,15.97
2023-04-26T09:53:34.449Z,16.61
2023-04-26T09:56:09.909Z,17.07
2023-04-26T09:58:37.976Z,17.44
2023-04-26T10:01:05.725Z,17.71
2023-04-26T10:03:34.664Z,18.00
2023-04-26T10:06:01.614Z,18.00
2023-04-26T10:08:28.436Z,18.16
2023-04-26T10:10:55.570Z,18.26
2023-04-26T10:13:22.323Z,18.59
2023-04-26T10:15:49.222Z,18.70
2023-04-26T10:18:16.062Z,18.51
2023-04-26T10:20:44.996Z,18.20
2023-04-26T10:23:21.753Z,17.79
2023-04-26T10:25:49.159Z,17.37
2023-04-26T10:28:18.235Z,17.25
2023-04-26T10:30:55.539Z,17.58
2023-04-26T10:33:23.926Z,19.83
2023-04-26T10:36:08.165Z,20.78
2023-04-26T10:38:39.661Z,22.16
2023-04-26T10:41:29.377Z,24.43
2023-04-26T10:43:56.505Z,25.60
2023-04-26T10:46:43.261Z,26.39
2023-04-26T10:49:17.196Z,26.10
2023-04-26T10:52:23.169Z,24.95
2023-04-26T10:54:53.977Z,24.15
2023-04-26T10:57:21.662Z,23.63
2023-04-26T11:00:08.953Z,23.08
2023-04-26T11:02:54.195Z,22.17
2023-04-26T11:05:58.525Z,21.50
2023-04-26T11:08:26.994Z,21.07
2023-04-26T11:11:10.322Z,20.68
2023-04-26T11:13:41.456Z,20.68
2023-04-26T11:16:08.947Z,20.92
2023-04-26T11:18:36.598Z,20.90
2023-04-26T11:21:03.616Z,20.35
2023-04-26T11:23:31.054Z,20.03
2023-04-26T11:26:04.645Z,19.67
2023-04-26T11:28:34.310Z,18.81
2023-04-26T11:31:04.934Z,18.10
2023-04-26T11:33:34.380Z,17.50
2023-04-26T11:36:01.651Z,17.31
2023-04-26T11:38:28.929Z,17.86
2023-04-26T11:40:56.792Z,19.84
2023-04-26T11:43:29.337Z,20.47
2023-04-26T11:45:59.472Z,20.29
2023-04-26T11:48:26.313Z,19.95
2023-04-26T11:50:53.168Z,19.51
2023-04-26T11:53:19.943Z,19.57
2023-04-26T11:55:46.782Z,19.95
2023-04-26T11:58:14.040Z,21.63
2023-04-26T12:01:00.535Z,23.95
2023-04-26T12:03:35.715Z,25.15
2023-04-26T12:06:02.725Z,25.63
2023-04-26T12:08:29.686Z,26.62
2023-04-26T12:11:01.309Z,27.36
2023-04-26T12:13:29.266Z,27.84
2023-04-26T12:15:56.414Z,28.11
2023-04-26T12:18:30.087Z,26.63
2023-04-26T12:20:59.116Z,24.73
2023-04-26T12:23:26.677Z,24.26
2023-04-26T12:25:55.104Z,25.23
2023-04-26T12:28:22.252Z,26.42
2023-04-26T12:30:49.465Z,27.19
2023-04-26T12:33:17.887Z,27.02
2023-04-26T12:35:45.176Z,24.23
2023-04-26T12:38:12.540Z,21.71
2023-04-26T12:40:39.524Z,19.64
2023-04-26T12:43:06.355Z,18.40
2023-04-26T12:45:33.153Z,18.09
2023-04-26T12:48:00.097Z,18.14
2023-04-26T12:50:27.732Z,20.34
2023-04-26T12:52:55.264Z,22.09
2023-04-26T12:55:22.145Z,23.80
2023-04-26T12:57:48.964Z,24.93
2023-04-26T13:00:17.723Z,25.84
2023-04-26T13:02:44.908Z,26.45
2023-04-26T13:05:12.945Z,25.91
2023-04-26T13:07:41.975Z,25.60
2023-04-26T13:10:12.930Z,23.67
2023-04-26T13:12:40.453Z,21.87
2023-04-26T13:15:08.188Z,21.97
2023-04-26T13:17:36.393Z,20.85
2023-04-26T13:20:04.765Z,20.12
2023-04-26T13:22:31.709Z,21.37
2023-04-26T13:25:00.621Z,23.67
2023-04-26T13:27:29.868Z,24.86
2023-04-26T13:29:58.682Z,23.73
2023-04-26T13:32:25.694Z,23.48
2023-04-26T13:34:53.372Z,24.02
2023-04-26T13:37:21.472Z,22.71
2023-04-26T13:39:48.474Z,22.10
2023-04-26T13:42:16.503Z,22.11
2023-04-26T13:44:43.551Z,21.92
2023-04-26T13:47:10.464Z,21.24
2023-04-26T13:49:38.164Z,20.05
2023-04-26T13:52:05.113Z,18.51
2023-04-26T13:54:32.026Z,17.35
2023-04-26T13:56:59.096Z,16.62
2023-04-26T13:59:26.838Z,16.22
2023-04-26T14:01:56.354Z,16.18
2023-04-26T14:04:25.851Z,16.97
2023-04-26T14:06:53.001Z,16.72
2023-04-26T14:09:19.800Z,18.01
2023-04-26T14:11:51.489Z,20.12
2023-04-26T14:14:20.998Z,21.88
2023-04-26T14:16:47.801Z,23.30
2023-04-26T14:19:17.329Z,24.17
2023-04-26T14:21:44.257Z,24.68
2023-04-26T14:24:11.748Z,24.96
2023-04-26T14:26:38.708Z,24.77
2023-04-26T14:29:05.515Z,23.76
2023-04-26T14:31:32.820Z,23.57
2023-04-26T14:33:59.725Z,23.12
2023-04-26T14:36:26.788Z,22.71
2023-04-26T14:38:53.660Z,22.38
2023-04-26T14:41:20.589Z,22.46
2023-04-26T14:43:47.498Z,22.43
2023-04-26T14:46:14.554Z,22.33
2023-04-26T14:48:43.780Z,21.93
2023-04-26T14:51:11.256Z,20.56
2023-04-26T14:53:38.806Z,20.72
2023-04-26T14:56:07.753Z,20.80
2023-04-26T14:58:34.840Z,20.81
2023-04-26T15:01:02.656Z,20.81
2023-04-26T15:03:29.811Z,20.43
2023-04-26T15:05:56.932Z,19.47
2023-04-26T15:08:23.810Z,18.23
2023-04-26T15:10:51.490Z,17.10
2023-04-26T15:13:18.781Z,16.33
2023-04-26T15:15:45.785Z,15.73
2023-04-26T15:18:12.621Z,15.26
2023-04-26T15:20:40.939Z,15.18
2023-04-26T15:23:08.563Z,15.40
2023-04-26T15:25:36.990Z,15.11
2023-04-26T15:28:04.180Z,14.79
2023-04-26T15:30:30.945Z,14.73
2023-04-26T15:32:57.877Z,14.58
2023-04-26T15:35:25.283Z,14.61
2023-04-26T15:37:54.111Z,14.92
2023-04-26T15:40:21.893Z,14.73
2023-04-26T15:42:49.952Z,14.86
2023-04-26T15:45:17.043Z,15.00
2023-04-26T15:47:43.997Z,15.89
2023-04-26T15:50:11.376Z,17.84
2023-04-26T15:52:39.459Z,20.23
2023-04-26T15:55:10.577Z,20.05
2023-04-26T15:57:37.885Z,18.79
2023-04-26T16:00:08.722Z,17.46
2023-04-26T16:02:36.154Z,16.11
2023-04-26T16:05:04.890Z,15.20
2023-04-26T16:07:32.125Z,14.53
2023-04-26T16:09:58.907Z,14.13
2023-04-26T16:12:25.925Z,13.93
2023-04-26T16:14:52.778Z,13.63
2023-04-26T16:17:19.627Z,13.18
2023-04-26T16:19:46.726Z,12.94
2023-04-26T16:22:13.537Z,12.52
2023-04-26T16:24:40.487Z,12.33
2023-04-26T16:27:07.332Z,12.03
2023-04-26T16:29:34.130Z,11.80
2023-04-26T16:32:01.068Z,11.54
2023-04-26T16:34:28.320Z,11.33
2023-04-26T16:36:55.124Z,11.02
2023-04-26T16:39:21.981Z,10.89
2023-04-26T16:41:48.905Z,10.82
2023-04-26T16:44:16.887Z,10.55
2023-04-26T16:46:43.777Z,10.42
2023-04-26T16:49:11.025Z,10.22
2023-04-26T16:51:38.486Z,10.04
2023-04-26T16:54:05.543Z,9.86
2023-04-26T16:56:32.518Z,9.77
2023-04-26T16:58:59.634Z,9.63
2023-04-26T17:01:26.682Z,9.38
2023-04-26T17:03:53.985Z,9.23
2023-04-26T17:06:21.146Z,9.08
2023-04-26T17:08:48.167Z,8.94
2023-04-26T17:11:17.982Z,8.88
2023-04-26T17:13:45.076Z,8.54
2023-04-26T17:16:12.259Z,8.56
2023-04-26T17:18:39.162Z,8.51
2023-04-26T17:21:06.159Z,8.45
2023-04-26T17:23:33.944Z,8.33
2023-04-26T17:26:04.456Z,8.34
2023-04-26T17:28:33.155Z,8.27
2023-04-26T17:31:00.305Z,8.13
2023-04-26T17:33:27.223Z,8.08
2023-04-26T17:35:54.007Z,7.94
2023-04-26T17:38:20.855Z,7.94
2023-04-26T17:40:52.659Z,7.82
2023-04-26T17:43:19.852Z,7.74
2023-04-26T17:45:46.978Z,7.62
2023-04-26T17:48:13.915Z,7.53
2023-04-26T17:50:41.020Z,7.36
2023-04-26T17:53:08.384Z,7.29
2023-04-26T17:55:35.170Z,7.18
2023-04-26T17:58:01.961Z,7.11
2023-04-26T18:00:28.703Z,7.00
2023-04-26T18:02:57.674Z,6.94
2023-04-26T18:05:25.174Z,6.82
2023-04-26T18:07:52.139Z,6.64
2023-04-26T18:10:18.976Z,6.62
2023-04-26T18:12:45.762Z,6.42
2023-04-26T18:15:13.774Z,6.32
2023-04-26T18:17:41.302Z,6.12
2023-04-26T18:20:08.558Z,6.04
2023-04-26T18:22:35.456Z,5.81
2023-04-26T18:25:02.194Z,5.73
2023-04-26T18:27:28.859Z,5.48
2023-04-26T18:29:55.555Z,5.39
2023-04-26T18:32:22.272Z,5.15
2023-04-26T18:34:48.981Z,5.12
2023-04-26T18:37:15.843Z,5.09
2023-04-26T18:39:42.625Z,5.05
2023-04-26T18:42:09.529Z,5.02
2023-04-26T18:44:36.356Z,4.88
2023-04-26T18:47:03.168Z,4.87
2023-04-26T18:49:30.038Z,4.90
2023-04-26T18:51:57.441Z,4.82
2023-04-26T18:54:24.372Z,4.82
2023-04-26T18:56:51.160Z,4.77
2023-04-26T18:59:17.941Z,4.61
2023-04-26T19:01:44.840Z,4.54
2023-04-26T19:04:12.248Z,4.43
2023-04-26T19:06:41.519Z,4.36
2023-04-26T19:09:11.804Z,4.22
2023-04-26T19:11:38.860Z,4.13
2023-04-26T19:14:05.759Z,4.06
2023-04-26T19:16:32.669Z,4.02
2023-04-26T19:18:59.529Z,3.95
2023-04-26T19:21:26.779Z,3.92
2023-04-26T19:23:53.556Z,3.72
2023-04-26T19:26:20.559Z,3.82
2023-04-26T19:28:47.471Z,3.83
2023-04-26T19:31:14.325Z,3.71
2023-04-26T19:33:41.604Z,3.72
2023-04-26T19:36:09.425Z,3.76
2023-04-26T19:38:36.232Z,3.70
2023-04-26T19:41:03.021Z,3.70
2023-04-26T19:43:29.813Z,3.71
2023-04-26T19:45:56.688Z,3.65
2023-04-26T19:48:23.451Z,3.64
2023-04-26T19:50:50.225Z,3.65
2023-04-26T19:53:16.964Z,3.59
2023-04-26T19:55:44.062Z,3.50
2023-04-26T19:58:11.106Z,3.49
2023-04-26T20:00:39.238Z,3.47
2023-04-26T20:03:06.701Z,3.40
2023-04-26T20:05:34.013Z,3.40
2023-04-26T20:08:01.473Z,3.37
2023-04-26T20:10:32.204Z,3.24
2023-04-26T20:12:59.463Z,3.33
2023-04-26T20:15:27.522Z,3.32
2023-04-26T20:17:54.452Z,3.23
2023-04-26T20:20:21.396Z,3.22
2023-04-26T20:22:48.202Z,3.17
2023-04-26T20:25:14.961Z,3.18
2023-04-26T20:27:41.813Z,2.91
2023-04-26T20:30:09.134Z,2.89
2023-04-26T20:32:35.938Z,2.90
2023-04-26T20:35:02.812Z,2.93
2023-04-26T20:37:29.639Z,3.02
2023-04-26T20:39:57.502Z,2.97
2023-04-26T20:42:24.991Z,2.93
2023-04-26T20:44:52.348Z,2.90
2023-04-26T20:47:19.400Z,2.83
2023-04-26T20:49:46.171Z,2.88
2023-04-26T20:52:13.149Z,2.85
2023-04-26T20:54:39.970Z,2.84
2023-04-26T20:57:06.739Z,2.75
2023-04-26T20:59:33.470Z,2.73
2023-04-26T21:02:00.324Z,2.69
2023-04-26T21:04:27.374Z,2.72
2023-04-26T21:06:54.356Z,2.69
2023-04-26T21:09:21.631Z,2.62
2023-04-26T21:11:48.430Z,2.57
2023-04-26T21:14:15.180Z,2.48
2023-04-26T21:16:41.977Z,2.46
2023-04-26T21:19:08.964Z,2.39
2023-04-26T21:21:35.883Z,2.27
2023-04-26T21:24:04.042Z,2.43
2023-04-26T21:26:31.068Z,2.44
2023-04-26T21:28:57.900Z,2.38
2023-04-26T21:31:24.782Z,2.42
2023-04-26T21:33:51.526Z,2.36
2023-04-26T21:36:18.388Z,2.41
2023-04-26T21:38:45.125Z,2.34
2023-04-26T21:41:11.961Z,2.31
2023-04-26T21:43:38.793Z,2.31
2023-04-26T21:46:06.651Z,2.13
2023-04-26T21:48:33.471Z,2.28
2023-04-26T21:51:00.414Z,2.26
2023-04-26T21:53:27.317Z,2.20
2023-04-26T21:55:54.156Z,2.23
2023-04-26T21:58:21.580Z,2.22
2023-04-26T22:00:48.961Z,2.18
2023-04-26T22:03:16.485Z,2.17
2023-04-26T22:05:43.537Z,2.10
2023-04-26T22:08:10.459Z,2.13
2023-04-26T22:10:37.272Z,2.06
2023-04-26T22:13:05.346Z,2.09
2023-04-26T22:15:32.215Z,2.07
2023-04-26T22:17:59.034Z,2.07
2023-04-26T22:20:26.590Z,2.06
2023-04-26T22:22:53.904Z,2.09
2023-04-26T22:25:21.136Z,2.01
2023-04-26T22:27:48.437Z,2.01
2023-04-26T22:30:25.537Z,2.03
2023-04-26T22:32:54.962Z,2.12
2023-04-26T22:35:22.399Z,2.07
2023-04-26T22:37:49.299Z,2.02
2023-04-26T22:40:16.290Z,2.08
2023-04-26T22:42:43.426Z,2.16
2023-04-26T22:45:10.879Z,2.01
2023-04-26T22:47:37.886Z,2.07
2023-04-26T22:50:05.157Z,2.13
2023-04-26T22:52:32.424Z,2.07
2023-04-26T22:55:00.087Z,2.10
2023-04-26T22:57:28.263Z,2.14
2023-04-26T22:59:54.989Z,2.07
2023-04-26T23:02:22.031Z,2.10
2023-04-26T23:04:48.942Z,1.98
2023-04-26T23:07:16.557Z,2.15
2023-04-26T23:09:43.427Z,2.07
2023-04-26T23:12:10.238Z,2.13
2023-04-26T23:14:37.900Z,2.04
2023-04-26T23:17:05.573Z,2.03
2023-04-26T23:19:33.256Z,2.01
2023-04-26T23:22:00.283Z,2.05
2023-04-26T23:24:27.148Z,1.99
2023-04-26T23:26:53.950Z,2.01
2023-04-26T23:29:20.762Z,1.96
2023-04-26T23:31:47.640Z,1.96
2023-04-26T23:34:14.453Z,1.83
2023-04-26T23:36:41.251Z,1.93
2023-04-26T23:39:08.904Z,1.81
2023-04-26T23:41:35.999Z,1.94
2023-04-26T23:44:02.867Z,1.86
2023-04-26T23:46:29.689Z,1.87
2023-04-26T23:48:56.461Z,1.77
2023-04-26T23:51:23.222Z,1.82
2023-04-26T23:53:49.981Z,1.78
2023-04-26T23:56:16.755Z,1.76
2023-04-26T23:58:43.494Z,1.77
